Time;durP1;ratioP1;P1;durP2;ratioP2;P2;SDS_P1;SDS_P2;PMS_P1;PMS_P2;Temp;Humidity;BMP_temperature;BMP_pressure;BME280_temperature;BME280_humidity;BME280_pressure;Samples;Min_cycle;Max_cycle;Signal;HPM_P1;HPM_P2
2023/07/18 00:01:07;;;;;;;4.07;1.65;;;;;;;22.23;44.42;101624.41;4905182;28;98257;-73
2023/07/18 00:03:33;;;;;;;3.50;1.75;;;;;;;22.33;44.56;101630.84;4903936;28;97559;-72
2023/07/18 00:06:00;;;;;;;3.40;1.90;;;;;;;22.26;44.60;101627.72;4909161;28;97914;-71
2023/07/18 00:08:26;;;;;;;6.38;1.90;;;;;;;22.22;44.82;101625.38;4907603;28;99369;-72
2023/07/18 00:10:54;;;;;;;7.22;1.90;;;;;;;22.10;45.65;101626.25;4910799;28;98856;-71
2023/07/18 00:13:20;;;;;;;5.05;2.13;;;;;;;22.00;46.04;101634.06;4908148;28;96884;-72
2023/07/18 00:15:47;;;;;;;2.58;1.55;;;;;;;21.94;46.17;101626.41;4907478;28;98831;-72
2023/07/18 00:18:14;;;;;;;3.60;1.63;;;;;;;21.93;46.54;101631.88;4907488;28;99740;-73
2023/07/18 00:20:41;;;;;;;4.80;1.85;;;;;;;22.05;46.28;101636.47;4910425;28;98680;-70
2023/07/18 00:23:09;;;;;;;4.70;1.98;;;;;;;22.11;46.31;101636.03;4908724;28;97475;-71
2023/07/18 00:25:36;;;;;;;4.07;2.08;;;;;;;22.10;46.23;101637.00;4910203;28;96940;-72
2023/07/18 00:28:04;;;;;;;3.47;1.92;;;;;;;21.77;47.27;101638.31;4905980;28;102455;-72
2023/07/18 00:30:31;;;;;;;3.13;1.65;;;;;;;21.84;47.28;101646.84;4907469;28;97744;-71
2023/07/18 00:32:57;;;;;;;3.55;1.80;;;;;;;22.07;46.80;101642.59;4903263;28;97747;-71
2023/07/18 00:35:24;;;;;;;4.50;1.90;;;;;;;21.93;47.62;101645.31;4907911;28;97114;-71
2023/07/18 00:37:50;;;;;;;3.33;1.88;;;;;;;21.83;47.61;101639.72;4914018;28;99268;-72
2023/07/18 00:40:17;;;;;;;3.72;1.92;;;;;;;21.83;48.13;101640.59;4909592;28;97697;-73
2023/07/18 00:42:45;;;;;;;2.78;1.88;;;;;;;22.01;47.41;101637.63;4908089;28;99249;-72
2023/07/18 00:45:14;;;;;;;3.15;1.63;;;;;;;21.98;48.02;101637.84;4907644;28;97759;-72
2023/07/18 00:47:44;;;;;;;4.35;1.85;;;;;;;21.66;48.62;101648.94;4907314;28;99455;-74
2023/07/18 00:50:14;;;;;;;3.42;1.90;;;;;;;21.70;48.75;101649.59;4906209;28;99152;-72
2023/07/18 00:52:43;;;;;;;4.55;1.88;;;;;;;21.92;48.47;101646.31;4910603;28;96850;-72
2023/07/18 00:55:11;;;;;;;4.18;2.00;;;;;;;21.78;49.14;101653.50;4907260;28;97995;-72
2023/07/18 00:57:39;;;;;;;5.65;1.80;;;;;;;21.68;49.37;101648.84;4908776;28;99532;-73
2023/07/18 01:00:11;;;;;;;5.03;2.00;;;;;;;21.60;49.77;101651.16;4907784;28;99098;-73
2023/07/18 01:02:40;;;;;;;4.05;1.85;;;;;;;21.38;50.64;101649.06;4907504;28;96800;-72
2023/07/18 01:05:07;;;;;;;3.88;2.25;;;;;;;21.25;50.87;101648.16;4905695;28;97226;-71
2023/07/18 01:07:34;;;;;;;4.68;2.03;;;;;;;21.33;50.79;101648.53;4907787;28;102079;-72
2023/07/18 01:10:17;;;;;;;5.78;2.20;;;;;;;21.25;51.19;101642.78;4903119;28;101360;-70
2023/07/18 01:12:44;;;;;;;5.40;2.38;;;;;;;21.29;51.21;101647.84;4905471;28;97000;-70
2023/07/18 01:15:12;;;;;;;1.98;1.70;;;;;;;21.23;51.20;101647.38;4902043;28;99722;-69
2023/07/18 01:17:43;;;;;;;4.75;2.00;;;;;;;21.15;51.37;101644.31;4908877;28;99377;-70
2023/07/18 01:20:14;;;;;;;4.03;1.90;;;;;;;21.04;51.63;101648.56;4901382;28;99422;-71
2023/07/18 01:22:42;;;;;;;2.67;2.00;;;;;;;21.14;51.72;101645.25;4909261;28;97267;-71
2023/07/18 01:25:11;;;;;;;3.45;1.73;;;;;;;20.99;52.51;101642.63;4910566;28;97020;-71
2023/07/18 01:27:38;;;;;;;4.53;1.60;;;;;;;20.71;53.47;101644.50;4909818;28;98940;-71
2023/07/18 01:30:06;;;;;;;4.32;1.95;;;;;;;20.94;52.89;101647.41;4911653;28;98053;-71
2023/07/18 01:32:33;;;;;;;4.00;1.85;;;;;;;20.68;53.41;101646.41;4908856;28;98101;-71
2023/07/18 01:35:04;;;;;;;4.80;1.92;;;;;;;20.91;52.85;101642.25;4905656;28;98839;-73
2023/07/18 01:37:30;;;;;;;2.92;1.95;;;;;;;20.81;53.32;101641.09;4906492;28;98969;-72
2023/07/18 01:39:58;;;;;;;4.20;1.95;;;;;;;20.75;53.62;101646.00;4906202;28;98784;-71
2023/07/18 01:42:24;;;;;;;3.28;1.92;;;;;;;21.03;52.80;101636.09;4909143;28;96935;-73
2023/07/18 01:44:51;;;;;;;3.50;2.08;;;;;;;20.98;53.12;101643.59;4905885;28;97665;-73
2023/07/18 01:47:17;;;;;;;7.45;2.08;;;;;;;20.90;53.23;101645.03;4901289;28;99524;-73
2023/07/18 01:49:43;;;;;;;4.25;1.90;;;;;;;20.92;53.28;101644.00;4905662;28;100805;-72
2023/07/18 01:52:10;;;;;;;2.53;1.70;;;;;;;21.02;53.15;101646.94;4904974;28;97244;-72
2023/07/18 01:54:37;;;;;;;7.28;2.03;;;;;;;20.96;53.71;101645.50;4908756;28;96940;-72
2023/07/18 01:57:05;;;;;;;4.47;2.00;;;;;;;20.97;53.19;101646.38;4903962;28;98969;-72
2023/07/18 01:59:32;;;;;;;3.25;1.98;;;;;;;20.94;53.36;101642.03;4909821;28;98836;-74
2023/07/18 02:01:58;;;;;;;5.20;2.10;;;;;;;21.14;52.84;101647.94;4903827;28;96900;-72
2023/07/18 02:04:24;;;;;;;3.53;2.00;;;;;;;21.17;52.67;101655.84;4906197;28;97454;-72
2023/07/18 02:06:52;;;;;;;5.22;2.05;;;;;;;21.14;52.51;101648.81;4903950;28;99227;-72
2023/07/18 02:09:18;;;;;;;3.92;1.75;;;;;;;20.88;53.59;101657.69;4910622;28;98651;-73
2023/07/18 02:11:45;;;;;;;5.70;1.95;;;;;;;20.85;53.58;101652.53;4906179;28;97458;-72
2023/07/18 02:14:12;;;;;;;2.70;1.58;;;;;;;20.55;54.74;101656.19;4906073;28;97355;-70
2023/07/18 02:16:38;;;;;;;3.38;2.25;;;;;;;20.20;55.65;101654.81;4909543;28;101753;-72
2023/07/18 02:19:05;;;;;;;2.28;1.63;;;;;;;20.11;56.47;101663.41;4907901;28;99357;-72
2023/07/18 02:21:31;;;;;;;2.17;1.90;;;;;;;19.79;57.45;101668.91;4907947;28;97577;-72
2023/07/18 02:23:58;;;;;;;4.40;1.73;;;;;;;20.12;56.67;101660.66;4906386;28;97582;-72
2023/07/18 02:26:24;;;;;;;5.72;2.45;;;;;;;20.09;56.58;101673.38;4905925;28;99075;-72
2023/07/18 02:28:51;;;;;;;5.13;2.25;;;;;;;20.20;56.48;101673.59;4911715;28;97087;-73
2023/07/18 02:31:18;;;;;;;5.15;2.00;;;;;;;20.14;56.63;101682.91;4906546;28;97962;-72
2023/07/18 02:33:45;;;;;;;5.68;2.30;;;;;;;20.15;56.97;101689.13;4912087;28;96863;-73
2023/07/18 02:36:12;;;;;;;4.68;2.13;;;;;;;20.21;56.69;101684.25;4905980;28;99359;-73
2023/07/18 02:38:38;;;;;;;5.68;2.20;;;;;;;20.19;56.69;101686.16;4912382;28;100190;-71
2023/07/18 02:41:05;;;;;;;3.58;2.42;;;;;;;20.29;56.49;101683.75;4908619;28;96869;-73
2023/07/18 02:43:31;;;;;;;3.63;1.98;;;;;;;20.35;56.40;101685.25;4910272;28;99010;-73
2023/07/18 02:45:57;;;;;;;4.72;2.25;;;;;;;20.41;56.51;101676.81;4910177;28;97364;-73
2023/07/18 02:48:26;;;;;;;2.65;1.92;;;;;;;20.40;56.78;101681.34;4906010;28;101789;-72
2023/07/18 02:50:52;;;;;;;4.93;2.10;;;;;;;20.36;56.33;101690.50;4903690;28;98930;-72
2023/07/18 02:53:18;;;;;;;2.80;1.85;;;;;;;20.12;57.25;101695.53;4911672;28;100609;-72
2023/07/18 02:55:45;;;;;;;6.07;2.22;;;;;;;20.25;56.80;101704.56;4915340;28;98989;-72
2023/07/18 02:58:11;;;;;;;2.78;1.85;;;;;;;20.36;56.45;101692.31;4905401;28;97746;-70
2023/07/18 03:00:37;;;;;;;3.38;2.08;;;;;;;20.42;56.41;101694.63;4910462;28;97546;-72
2023/07/18 03:03:04;;;;;;;5.50;2.40;;;;;;;20.35;56.68;101701.38;4907809;28;97394;-72
2023/07/18 03:05:33;;;;;;;3.28;2.20;;;;;;;20.23;57.05;101697.56;4907823;28;97996;-71
2023/07/18 03:07:59;;;;;;;5.35;1.98;;;;;;;20.24;57.22;101700.16;4909267;28;98630;-72
2023/07/18 03:10:26;;;;;;;4.68;2.35;;;;;;;20.35;56.86;101701.38;4904073;28;97681;-71
2023/07/18 03:12:52;;;;;;;3.28;2.40;;;;;;;20.30;57.01;101701.59;4905812;28;97031;-72
2023/07/18 03:15:19;;;;;;;10.00;3.10;;;;;;;20.12;57.67;101706.25;4905351;28;99014;-71
2023/07/18 03:17:46;;;;;;;3.30;2.17;;;;;;;20.04;57.75;101713.03;4906460;28;101673;-74
2023/07/18 03:20:16;;;;;;;5.95;2.28;;;;;;;20.07;57.82;101718.22;4904561;28;99128;-71
2023/07/18 03:22:45;;;;;;;5.20;2.40;;;;;;;20.21;57.17;101713.78;4908272;28;97836;-72
2023/07/18 03:25:12;;;;;;;7.90;2.60;;;;;;;20.20;57.33;101709.34;4912076;28;99998;-71
2023/07/18 03:27:39;;;;;;;5.00;2.47;;;;;;;20.14;57.65;101707.03;4905249;28;99629;-72
2023/07/18 03:30:10;;;;;;;6.28;2.20;;;;;;;20.15;57.82;101700.69;4903501;28;96859;-71
2023/07/18 03:32:36;;;;;;;3.60;2.40;;;;;;;19.92;58.09;101706.59;4908654;28;96931;-72
2023/07/18 03:35:03;;;;;;;5.55;3.00;;;;;;;20.08;58.11;101710.09;4904828;28;98991;-71
2023/07/18 03:37:29;;;;;;;6.32;2.47;;;;;;;20.09;58.20;101710.94;4912229;28;101249;-72
2023/07/18 03:39:57;;;;;;;7.05;3.10;;;;;;;20.32;57.15;101714.94;4909993;28;97614;-71
2023/07/18 03:42:23;;;;;;;5.30;2.50;;;;;;;20.28;57.44;101722.31;4905679;28;97319;-71
2023/07/18 03:44:50;;;;;;;3.50;2.28;;;;;;;20.36;57.27;101711.13;4903656;28;99644;-73
2023/07/18 03:47:16;;;;;;;5.53;2.47;;;;;;;20.27;57.06;101713.41;4908107;28;98924;-73
2023/07/18 03:49:43;;;;;;;4.53;2.33;;;;;;;20.33;56.98;101714.00;4910872;28;97055;-73
2023/07/18 03:52:09;;;;;;;8.15;2.42;;;;;;;20.18;57.58;101710.38;4913051;28;96999;-73
2023/07/18 03:54:35;;;;;;;5.72;2.78;;;;;;;20.35;57.26;101710.25;4912245;28;97881;-72
2023/07/18 03:57:03;;;;;;;4.35;2.08;;;;;;;20.30;57.38;101704.28;4904975;28;99036;-73
2023/07/18 03:59:30;;;;;;;4.40;2.20;;;;;;;20.40;56.89;101716.22;4909415;28;96707;-73
2023/07/18 04:01:56;;;;;;;4.35;2.78;;;;;;;20.42;56.86;101708.91;4906216;28;96848;-73
2023/07/18 04:04:22;;;;;;;3.88;2.60;;;;;;;20.23;57.53;101711.84;4909361;28;98987;-73
2023/07/18 04:06:49;;;;;;;9.65;3.38;;;;;;;20.48;56.51;101703.19;4915485;28;97587;-73
2023/07/18 04:09:15;;;;;;;6.57;2.80;;;;;;;20.33;57.07;101714.00;4911772;28;97059;-73
2023/07/18 04:11:45;;;;;;;4.07;2.80;;;;;;;20.32;56.96;101710.41;4910335;28;97769;-73
2023/07/18 04:14:14;;;;;;;4.57;3.00;;;;;;;20.25;57.28;101701.88;4909129;28;100628;-73
2023/07/18 04:16:40;;;;;;;7.25;3.15;;;;;;;20.28;57.56;101699.00;4909392;28;100141;-73
2023/07/18 04:19:08;;;;;;;7.22;3.08;;;;;;;20.52;56.85;101709.22;4910548;28;96887;-74
2023/07/18 04:21:34;;;;;;;8.77;2.78;;;;;;;20.68;56.39;101710.84;4909031;28;97220;-72
2023/07/18 04:24:00;;;;;;;4.80;2.63;;;;;;;20.77;56.08;101709.44;4908444;28;99160;-73
2023/07/18 04:26:27;;;;;;;5.47;2.70;;;;;;;20.66;56.17;101711.94;4910676;28;96800;-72
2023/07/18 04:28:53;;;;;;;9.02;2.80;;;;;;;20.74;56.39;101717.69;4911204;28;97621;-73
2023/07/18 04:31:21;;;;;;;3.95;2.33;;;;;;;20.72;55.76;101710.69;4902656;28;98608;-74
2023/07/18 04:33:47;;;;;;;6.05;2.17;;;;;;;20.93;55.48;101707.50;4910233;28;100598;-74
2023/07/18 04:36:14;;;;;;;5.05;2.55;;;;;;;20.97;54.90;101706.34;4910242;28;99177;-72
2023/07/18 04:38:44;;;;;;;5.47;2.83;;;;;;;21.07;54.74;101706.59;4910961;28;96975;-73
2023/07/18 04:41:10;;;;;;;5.18;3.03;;;;;;;21.15;54.08;101712.34;4911911;28;96823;-73
2023/07/18 04:43:36;;;;;;;4.32;2.45;;;;;;;21.23;53.94;101715.44;4907145;28;98996;-73
2023/07/18 04:46:05;;;;;;;5.47;2.45;;;;;;;21.10;54.36;101709.09;4909096;28;99250;-73
2023/07/18 04:48:32;;;;;;;5.53;2.85;;;;;;;21.30;53.62;101707.84;4909556;28;96779;-73
2023/07/18 04:51:00;;;;;;;6.43;2.28;;;;;;;21.21;54.20;101716.50;4906348;28;96834;-73
2023/07/18 04:53:28;;;;;;;4.43;2.20;;;;;;;21.32;53.77;101722.06;4908099;28;101255;-73
2023/07/18 04:55:55;;;;;;;3.83;2.40;;;;;;;21.40;53.41;101725.97;4912591;28;99144;-73
2023/07/18 04:58:24;;;;;;;4.45;2.42;;;;;;;21.17;53.88;101725.72;4912113;28;98397;-72
2023/07/18 05:00:50;;;;;;;4.95;3.03;;;;;;;21.45;53.22;101723.00;4910268;28;99808;-74
2023/07/18 05:03:17;;;;;;;5.65;2.78;;;;;;;21.48;52.94;101723.63;4909083;28;99021;-72
2023/07/18 05:05:45;;;;;;;9.82;4.40;;;;;;;21.55;52.73;101717.84;4908951;28;99432;-73
2023/07/18 05:08:11;;;;;;;6.38;2.60;;;;;;;21.45;52.91;101728.38;4911121;28;98627;-73
2023/07/18 05:10:39;;;;;;;5.60;3.15;;;;;;;21.61;52.56;101728.22;4911871;28;97749;-71
2023/07/18 05:13:05;;;;;;;4.65;2.28;;;;;;;21.94;51.49;101730.47;4902079;28;99382;-74
2023/07/18 05:15:32;;;;;;;4.47;2.50;;;;;;;22.30;50.26;101733.41;4908956;28;98831;-73
2023/07/18 05:17:58;;;;;;;6.90;2.58;;;;;;;22.62;49.04;101733.84;4907487;28;97713;-73
2023/07/18 05:20:25;;;;;;;7.82;2.50;;;;;;;22.61;48.97;101746.44;4904916;28;98353;-72
2023/07/18 05:22:52;;;;;;;7.43;2.67;;;;;;;22.72;49.07;101736.72;4903301;28;98948;-72
2023/07/18 05:25:19;;;;;;;4.72;2.80;;;;;;;22.51;49.30;101739.13;4907148;28;99511;-72
2023/07/18 05:27:45;;;;;;;8.77;4.05;;;;;;;22.32;49.82;101744.06;4906813;28;97791;-71
2023/07/18 05:30:14;;;;;;;9.57;2.78;;;;;;;22.31;50.21;101750.41;4904667;28;96819;-71
2023/07/18 05:32:40;;;;;;;6.22;2.35;;;;;;;22.19;50.92;101735.94;4904299;28;97865;-74
2023/07/18 05:35:09;;;;;;;7.10;2.95;;;;;;;22.57;50.06;101726.09;4904740;28;102346;-73
2023/07/18 05:37:36;;;;;;;8.65;2.90;;;;;;;22.91;49.06;101727.25;4904550;28;99166;-73
2023/07/18 05:40:05;;;;;;;6.10;3.30;;;;;;;22.83;49.30;101731.50;4910264;28;97325;-72
2023/07/18 05:42:32;;;;;;;6.40;2.70;;;;;;;23.00;48.34;101726.63;4908442;28;97958;-71
2023/07/18 05:44:58;;;;;;;6.93;3.13;;;;;;;23.28;47.65;101727.31;4908763;28;98785;-71
2023/07/18 05:47:25;;;;;;;4.22;2.55;;;;;;;23.27;47.70;101714.78;4908280;28;97123;-71
2023/07/18 05:49:51;;;;;;;6.82;2.60;;;;;;;23.03;47.72;101722.84;4907732;28;96881;-71
2023/07/18 05:52:18;;;;;;;8.73;2.65;;;;;;;23.07;47.88;101724.34;4907441;28;99606;-71
2023/07/18 05:54:45;;;;;;;5.95;3.13;;;;;;;23.00;48.19;101726.63;4907348;28;98274;-73
2023/07/18 05:57:14;;;;;;;8.18;3.28;;;;;;;22.88;48.43;101719.41;4906832;28;97997;-71
2023/07/18 05:59:40;;;;;;;6.38;3.28;;;;;;;23.14;47.79;101714.84;4906376;28;97944;-72
2023/07/18 06:02:07;;;;;;;5.38;2.70;;;;;;;23.33;47.51;101708.94;4902267;28;99901;-71
2023/07/18 06:04:35;;;;;;;6.15;3.10;;;;;;;23.38;47.09;101712.16;4909712;28;99419;-71
2023/07/18 06:07:01;;;;;;;6.38;3.83;;;;;;;23.31;47.33;101711.75;4897118;28;98528;-72
2023/07/18 06:09:28;;;;;;;7.63;2.88;;;;;;;23.59;46.67;101715.13;4904786;28;98418;-71
2023/07/18 06:11:54;;;;;;;6.53;4.18;;;;;;;23.76;46.37;101710.19;4907133;28;101450;-71
2023/07/18 06:14:22;;;;;;;6.57;2.60;;;;;;;23.93;45.37;101719.72;4908329;28;101083;-73
2023/07/18 06:16:48;;;;;;;5.45;3.13;;;;;;;23.83;45.32;101716.84;4907972;28;97212;-72
2023/07/18 06:19:15;;;;;;;5.78;2.75;;;;;;;23.58;45.89;101716.97;4905094;28;96854;-72
2023/07/18 06:21:42;;;;;;;7.32;3.17;;;;;;;23.73;45.85;101723.06;4910161;28;101304;-73
2023/07/18 06:24:09;;;;;;;6.63;2.92;;;;;;;23.84;45.61;101721.25;4911944;28;98171;-72
2023/07/18 06:26:39;;;;;;;6.53;2.63;;;;;;;24.05;44.96;101726.88;4906269;28;101982;-72
2023/07/18 06:29:06;;;;;;;9.75;2.92;;;;;;;24.27;44.72;101734.22;4907669;28;97142;-72
2023/07/18 06:31:35;;;;;;;7.47;2.75;;;;;;;24.36;44.14;101732.63;4904704;28;99014;-72
2023/07/18 06:34:01;;;;;;;3.95;2.63;;;;;;;24.42;43.94;101724.03;4900286;28;97315;-69
2023/07/18 06:36:28;;;;;;;8.38;2.65;;;;;;;24.53;43.76;101724.09;4907034;28;98715;-75
2023/07/18 06:38:54;;;;;;;10.43;2.58;;;;;;;24.80;43.55;101721.91;4906270;28;97667;-72
2023/07/18 06:41:21;;;;;;;4.43;2.30;;;;;;;24.65;43.43;101728.53;4902625;28;99062;-73
2023/07/18 06:43:48;;;;;;;5.35;2.67;;;;;;;24.49;43.59;101728.00;4903653;28;101619;-73
2023/07/18 06:46:14;;;;;;;6.25;2.40;;;;;;;24.61;43.68;101738.69;4906906;28;97165;-73
2023/07/18 06:48:42;;;;;;;9.02;2.75;;;;;;;24.84;42.58;101728.78;4906997;28;96815;-73
2023/07/18 06:51:08;;;;;;;5.50;2.45;;;;;;;25.12;42.47;101727.44;4903801;28;98954;-73
2023/07/18 06:53:35;;;;;;;8.63;3.33;;;;;;;25.32;41.26;101731.25;4897997;28;98865;-74
2023/07/18 06:56:01;;;;;;;6.97;2.25;;;;;;;25.62;41.02;101726.00;4905551;28;96752;-72
2023/07/18 06:58:28;;;;;;;5.72;2.97;;;;;;;25.61;41.13;101732.41;4904594;28;98304;-74
2023/07/18 07:00:54;;;;;;;5.45;2.65;;;;;;;25.96;40.21;101736.72;4903534;28;100009;-73
2023/07/18 07:03:20;;;;;;;6.70;2.70;;;;;;;25.87;40.72;101732.06;4912273;28;98818;-73
2023/07/18 07:05:48;;;;;;;5.75;2.22;;;;;;;25.88;40.04;101734.66;4907163;28;97436;-73
2023/07/18 07:08:18;;;;;;;11.23;2.83;;;;;;;25.59;40.16;101731.69;4907616;28;96851;-72
2023/07/18 07:10:45;;;;;;;5.57;2.75;;;;;;;25.93;39.84;101729.72;4909729;28;99032;-73
2023/07/18 07:13:11;;;;;;;7.20;2.63;;;;;;;26.00;39.82;101727.34;4902095;28;98859;-72
2023/07/18 07:15:38;;;;;;;4.03;2.20;;;;;;;26.05;40.09;101725.97;4906922;28;96918;-73
2023/07/18 07:18:06;;;;;;;4.50;2.67;;;;;;;25.92;39.77;101729.84;4903550;28;97564;-72
2023/07/18 07:20:36;;;;;;;6.32;2.58;;;;;;;25.76;39.70;101731.13;4908368;28;99256;-74
2023/07/18 07:23:04;;;;;;;10.73;3.00;;;;;;;25.53;40.26;101729.47;4909776;28;97751;-73
2023/07/18 07:25:31;;;;;;;6.63;3.05;;;;;;;25.46;40.65;101733.66;4914355;28;96790;-75
2023/07/18 07:27:58;;;;;;;8.38;2.97;;;;;;;25.47;40.82;101729.94;4911186;28;96922;-74
2023/07/18 07:30:28;;;;;;;7.38;2.95;;;;;;;25.89;40.35;101732.81;4908662;28;98932;-73
2023/07/18 07:32:54;;;;;;;6.38;2.40;;;;;;;26.09;40.01;101730.13;4910594;28;99129;-72
2023/07/18 07:35:22;;;;;;;5.82;2.97;;;;;;;26.16;39.45;101728.63;4909900;28;96936;-73
2023/07/18 07:37:50;;;;;;;5.88;2.60;;;;;;;25.94;39.06;101728.72;4907239;28;96933;-72
2023/07/18 07:40:19;;;;;;;5.70;3.00;;;;;;;26.09;39.39;101726.56;4910407;28;99436;-72
2023/07/18 07:42:46;;;;;;;5.35;3.35;;;;;;;26.20;39.47;101729.22;4912067;28;99038;-73
2023/07/18 07:45:14;;;;;;;12.02;2.83;;;;;;;26.73;38.04;101727.28;4914123;28;96962;-73
2023/07/18 07:47:41;;;;;;;9.68;2.92;;;;;;;27.19;37.34;101726.78;4911995;28;97864;-73
2023/07/18 07:50:08;;;;;;;7.43;3.20;;;;;;;27.97;35.51;101730.50;4913110;28;99165;-73
2023/07/18 07:52:36;;;;;;;7.95;3.05;;;;;;;26.84;37.06;101727.22;4907287;28;99351;-74
2023/07/18 07:55:02;;;;;;;5.75;3.13;;;;;;;26.40;38.48;101725.66;4915317;28;97289;-72
2023/07/18 07:57:30;;;;;;;7.10;2.75;;;;;;;25.87;39.09;101726.66;4909170;28;97033;-73
2023/07/18 07:59:57;;;;;;;25.08;3.58;;;;;;;25.59;39.55;101714.59;4908945;28;98984;-73
2023/07/18 08:02:23;;;;;;;12.93;3.33;;;;;;;25.62;39.53;101717.03;4902749;28;99438;-74
2023/07/18 08:04:51;;;;;;;7.25;2.72;;;;;;;25.38;40.05;101719.91;4905109;28;97925;-73
2023/07/18 08:07:18;;;;;;;7.75;3.10;;;;;;;25.30;40.77;101725.09;4906308;28;97358;-72
2023/07/18 08:09:44;;;;;;;8.93;3.20;;;;;;;25.20;41.02;101718.72;4904152;28;99248;-72
2023/07/18 08:12:12;;;;;;;8.18;2.42;;;;;;;25.57;39.63;101713.81;4903709;28;98150;-73
2023/07/18 08:14:40;;;;;;;6.57;2.67;;;;;;;25.94;38.77;101706.19;4904327;28;100294;-72
2023/07/18 08:17:07;;;;;;;4.25;2.35;;;;;;;25.89;37.49;101708.44;4907041;28;97896;-74
2023/07/18 08:19:33;;;;;;;6.25;2.25;;;;;;;25.74;38.19;101706.03;4907242;28;98980;-73
2023/07/18 08:22:00;;;;;;;6.60;2.40;;;;;;;26.16;36.63;101708.81;4908217;28;101893;-72
2023/07/18 08:24:26;;;;;;;4.75;2.42;;;;;;;26.32;36.73;101714.63;4909400;28;96810;-73
2023/07/18 08:26:53;;;;;;;6.78;2.92;;;;;;;26.35;36.54;101706.25;4908460;28;97049;-73
2023/07/18 08:29:20;;;;;;;5.93;2.22;;;;;;;26.89;35.75;101715.97;4905712;28;97763;-74
2023/07/18 08:31:48;;;;;;;6.70;2.45;;;;;;;27.16;35.25;101693.66;4904653;28;98841;-73
2023/07/18 08:34:15;;;;;;;7.95;2.72;;;;;;;27.71;34.64;101693.06;4904689;28;98159;-74
2023/07/18 08:36:42;;;;;;;5.82;2.08;;;;;;;27.62;34.45;101701.22;4908013;28;97142;-73
2023/07/18 08:39:08;;;;;;;7.47;2.67;;;;;;;27.07;34.69;101686.34;4910719;28;99551;-72
2023/07/18 08:41:34;;;;;;;5.80;2.20;;;;;;;27.21;34.56;101691.38;4907001;28;99416;-73
2023/07/18 08:44:01;;;;;;;4.63;2.08;;;;;;;27.14;34.84;101680.22;4903786;28;97920;-72
2023/07/18 08:46:28;;;;;;;7.70;3.05;;;;;;;27.12;35.10;101682.22;4910689;28;97418;-74
2023/07/18 08:48:55;;;;;;;6.03;2.00;;;;;;;27.59;34.05;101680.63;4907643;28;99335;-73
2023/07/18 08:51:22;;;;;;;6.55;2.30;;;;;;;27.56;34.43;101677.34;4907821;28;99232;-74
2023/07/18 08:53:48;;;;;;;11.30;2.47;;;;;;;27.19;34.21;101680.66;4907169;28;97156;-73
2023/07/18 08:56:15;;;;;;;4.80;1.85;;;;;;;26.94;34.39;101673.91;4907776;28;97345;-72
2023/07/18 08:58:41;;;;;;;3.17;2.38;;;;;;;26.76;34.92;101678.22;4905312;28;99112;-73
2023/07/18 09:01:08;;;;;;;8.68;1.90;;;;;;;27.10;33.70;101667.97;4905030;28;99182;-73
2023/07/18 09:03:35;;;;;;;6.22;1.85;;;;;;;26.94;33.16;101667.63;4909589;28;97747;-71
2023/07/18 09:06:03;;;;;;;4.78;2.13;;;;;;;26.65;33.17;101677.47;4904620;28;98323;-74
2023/07/18 09:08:41;;;;;;;4.50;1.80;;;;;;;26.24;34.20;101672.94;4905578;28;99085;-73
2023/07/18 09:11:07;;;;;;;7.57;2.25;;;;;;;26.27;34.17;101664.56;4903506;28;99143;-73
2023/07/18 09:13:38;;;;;;;3.30;1.70;;;;;;;26.71;33.54;101664.22;4903896;28;96861;-74
2023/07/18 09:16:12;;;;;;;7.95;2.28;;;;;;;26.92;33.21;101658.75;4906525;28;97170;-74
2023/07/18 09:18:38;;;;;;;5.07;1.90;;;;;;;27.36;33.32;101658.31;4904250;28;99469;-74
2023/07/18 09:21:09;;;;;;;5.30;1.90;;;;;;;27.52;31.87;101655.03;4905141;28;98943;-73
2023/07/18 09:23:40;;;;;;;6.28;1.92;;;;;;;27.86;31.70;101655.47;4907429;28;98260;-73
2023/07/18 09:26:10;;;;;;;6.03;1.50;;;;;;;27.36;31.25;101652.88;4907933;28;97129;-73
2023/07/18 09:28:36;;;;;;;3.28;1.55;;;;;;;27.19;30.43;101648.13;4903864;28;100264;-72
2023/07/18 09:31:02;;;;;;;5.47;1.63;;;;;;;27.38;30.51;101640.00;4908531;28;98874;-72
2023/07/18 09:33:29;;;;;;;3.60;1.35;;;;;;;27.29;30.49;101645.44;4900642;28;97765;-72
2023/07/18 09:35:58;;;;;;;3.20;1.67;;;;;;;27.27;31.00;101642.00;4905418;28;97258;-72
2023/07/18 09:38:26;;;;;;;4.00;1.83;;;;;;;27.69;31.29;101638.06;4907432;28;99427;-73
2023/07/18 09:40:53;;;;;;;6.07;2.00;;;;;;;27.74;30.91;101635.75;4908616;28;101193;-73
2023/07/18 09:43:22;;;;;;;4.38;1.77;;;;;;;28.19;30.68;101632.41;4907274;28;97120;-73
2023/07/18 09:45:52;;;;;;;3.03;1.40;;;;;;;28.09;29.24;101639.72;4905374;28;97601;-72
2023/07/18 09:48:18;;;;;;;4.18;1.40;;;;;;;27.90;29.45;101632.44;4908040;28;99092;-72
2023/07/18 09:50:47;;;;;;;3.38;1.63;;;;;;;27.84;29.78;101624.88;4908004;28;98916;-73
2023/07/18 09:53:15;;;;;;;4.38;1.58;;;;;;;27.80;29.55;101639.75;4901277;28;98633;-72
2023/07/18 09:55:44;;;;;;;9.02;1.83;;;;;;;27.43;29.87;101622.44;4910540;28;97165;-72
2023/07/18 09:58:12;;;;;;;5.43;1.50;;;;;;;27.12;30.67;101627.09;4907209;28;98924;-74
2023/07/18 10:00:41;;;;;;;5.50;1.60;;;;;;;27.15;29.93;101621.41;4905857;28;99198;-72
2023/07/18 10:03:09;;;;;;;3.42;1.48;;;;;;;27.30;29.32;101631.72;4908259;28;96891;-74
2023/07/18 10:05:36;;;;;;;3.55;1.27;;;;;;;27.48;28.57;101620.16;4907961;28;96879;-73
2023/07/18 10:08:04;;;;;;;3.38;1.27;;;;;;;27.88;28.42;101614.59;4901834;28;99103;-73
2023/07/18 10:10:31;;;;;;;4.93;1.50;;;;;;;28.35;28.83;101618.22;4906570;28;99826;-73
2023/07/18 10:13:00;;;;;;;3.67;1.38;;;;;;;27.96;28.69;101617.44;4906125;28;96900;-73
2023/07/18 10:15:27;;;;;;;4.22;1.75;;;;;;;28.00;29.08;101619.72;4906284;28;96968;-73
2023/07/18 10:17:54;;;;;;;4.40;1.35;;;;;;;28.13;28.64;101606.66;4906453;28;99003;-73
2023/07/18 10:20:23;;;;;;;5.40;1.67;;;;;;;28.39;28.83;101603.31;4907668;28;99076;-73
2023/07/18 10:22:55;;;;;;;2.88;1.52;;;;;;;27.71;29.61;101605.31;4907782;28;96971;-73
2023/07/18 10:25:22;;;;;;;2.15;1.67;;;;;;;27.66;29.96;101610.31;4901020;28;97160;-73
2023/07/18 10:27:50;;;;;;;3.42;1.80;;;;;;;27.52;29.94;101599.88;4904141;28;99149;-73
2023/07/18 10:30:20;;;;;;;3.78;1.60;;;;;;;27.88;29.20;101599.16;4906504;28;98893;-73
2023/07/18 10:32:54;;;;;;;4.38;1.70;;;;;;;27.56;28.90;101599.47;4900710;28;97265;-73
2023/07/18 10:35:24;;;;;;;2.00;1.23;;;;;;;27.43;29.07;101596.16;4903459;28;96843;-72
2023/07/18 10:37:52;;;;;;;2.50;1.60;;;;;;;27.18;29.43;101584.00;4906140;28;99045;-73
2023/07/18 10:40:37;;;;;;;2.65;1.20;;;;;;;27.67;28.58;101584.88;4905289;28;98763;-74
2023/07/18 10:43:05;;;;;;;4.85;1.27;;;;;;;27.88;28.06;101587.44;4907727;28;98319;-73
2023/07/18 10:45:37;;;;;;;5.53;1.50;;;;;;;27.76;27.76;101584.03;4908327;28;97118;-73
2023/07/18 10:48:10;;;;;;;3.60;1.30;;;;;;;27.90;28.26;101583.53;4901683;28;99420;-73
2023/07/18 10:50:36;;;;;;;4.05;1.33;;;;;;;27.93;28.12;101576.97;4902956;28;98915;-74
2023/07/18 10:53:03;;;;;;;4.38;1.45;;;;;;;28.01;28.27;101567.09;4905548;28;99168;-73
2023/07/18 10:55:29;;;;;;;2.67;1.35;;;;;;;28.06;27.85;101563.94;4899719;28;97361;-73
2023/07/18 10:57:56;;;;;;;4.07;1.23;;;;;;;28.17;27.71;101552.03;4904414;28;99146;-71
2023/07/18 11:00:25;;;;;;;5.60;1.23;;;;;;;28.33;27.25;101550.41;4905724;28;97843;-73
2023/07/18 11:02:53;;;;;;;3.83;1.50;;;;;;;28.35;27.31;101551.13;4906718;28;96847;-73
2023/07/18 11:05:21;;;;;;;4.22;1.77;;;;;;;28.86;26.93;101549.72;4903384;28;97370;-73
2023/07/18 11:07:48;;;;;;;4.68;1.60;;;;;;;29.16;26.88;101543.03;4905596;28;99906;-72
2023/07/18 11:10:16;;;;;;;7.13;1.52;;;;;;;28.76;26.64;101541.63;4907526;28;98459;-72
2023/07/18 11:12:43;;;;;;;3.42;1.80;;;;;;;28.61;27.03;101534.97;4901099;28;96875;-72
2023/07/18 11:15:11;;;;;;;6.53;2.20;;;;;;;28.73;26.88;101532.88;4902206;28;97281;-72
2023/07/18 11:17:38;;;;;;;7.32;1.70;;;;;;;29.10;26.59;101530.06;4906375;28;99040;-73
2023/07/18 11:20:08;;;;;;;4.53;1.42;;;;;;;28.36;27.29;101524.78;4904872;28;98974;-73
2023/07/18 11:22:35;;;;;;;2.80;1.33;;;;;;;28.54;27.01;101528.44;4906471;28;98003;-74
2023/07/18 11:25:02;;;;;;;4.35;1.20;;;;;;;28.08;27.62;101513.88;4904976;28;96943;-72